Time;durP1;ratioP1;P1;durP2;ratioP2;P2;SDS_P1;SDS_P2;PMS_P1;PMS_P2;Temp;Humidity;BMP_temperature;BMP_pressure;BME280_temperature;BME280_humidity;BME280_pressure;Samples;Min_cycle;Max_cycle;Signal;HPM_P1;HPM_P2
2021/08/11 00:00:14;;;;;;;10.10;4.38;;;;;;;17.52;71.73;99136.81;3611161;39;20075;-70
2021/08/11 00:02:42;;;;;;;5.30;4.43;;;;;;;17.48;71.99;99139.13;3610712;39;20024;-72
2021/08/11 00:05:11;;;;;;;5.82;4.38;;;;;;;17.50;72.41;99147.72;3612155;39;20040;-71
2021/08/11 00:07:39;;;;;;;7.63;4.35;;;;;;;17.51;72.24;99145.84;3613903;39;20342;-71
2021/08/11 00:10:08;;;;;;;4.53;4.00;;;;;;;17.55;72.38;99145.19;3613692;39;20055;-71
2021/08/11 00:12:36;;;;;;;5.90;4.00;;;;;;;17.65;71.87;99139.28;3613562;39;20035;-71
2021/08/11 00:15:05;;;;;;;4.85;4.35;;;;;;;17.68;71.52;99138.00;3613513;39;20091;-72
2021/08/11 00:17:34;;;;;;;7.18;4.63;;;;;;;17.71;71.67;99135.66;3613864;39;20031;-71
2021/08/11 00:20:02;;;;;;;5.88;4.70;;;;;;;17.69;71.56;99128.94;3613105;39;20047;-72
2021/08/11 00:22:30;;;;;;;7.88;4.22;;;;;;;17.70;71.44;99135.91;3613515;39;20342;-71
2021/08/11 00:24:57;;;;;;;7.32;3.83;;;;;;;17.70;71.58;99122.53;3613861;39;20051;-72
2021/08/11 00:27:25;;;;;;;8.15;4.30;;;;;;;17.69;71.32;99137.78;3611473;39;20040;-71
2021/08/11 00:29:53;;;;;;;7.68;4.45;;;;;;;17.68;71.54;99140.69;3610329;39;20132;-71
2021/08/11 00:32:21;;;;;;;6.28;4.40;;;;;;;17.64;71.53;99129.63;3609921;39;20107;-71
2021/08/11 00:34:50;;;;;;;5.82;4.88;;;;;;;17.54;71.47;99130.19;3610768;39;20136;-71
2021/08/11 00:37:18;;;;;;;4.80;4.20;;;;;;;17.46;71.75;99124.34;3610471;39;20320;-71
2021/08/11 00:39:48;;;;;;;5.55;4.70;;;;;;;17.41;72.26;99130.38;3618843;39;20289;-70
2021/08/11 00:42:16;;;;;;;6.78;5.22;;;;;;;17.39;72.15;99132.50;3610409;39;20047;-71
2021/08/11 00:44:44;;;;;;;5.28;4.38;;;;;;;17.37;72.75;99136.44;3610121;39;20050;-70
2021/08/11 00:47:12;;;;;;;5.25;4.78;;;;;;;17.37;72.37;99142.59;3609902;39;20036;-71
2021/08/11 00:49:43;;;;;;;7.28;5.20;;;;;;;17.40;72.62;99139.47;3610115;39;20305;-71
2021/08/11 00:52:14;;;;;;;5.15;4.60;;;;;;;17.39;72.68;99143.19;3610153;39;20316;-72
2021/08/11 00:54:46;;;;;;;8.48;5.10;;;;;;;17.38;72.21;99135.38;3610115;39;20042;-72
2021/08/11 00:57:18;;;;;;;6.00;4.10;;;;;;;17.40;72.46;99141.31;3610582;39;20028;-71
2021/08/11 00:59:49;;;;;;;7.85;4.45;;;;;;;17.45;72.37;99141.44;3609959;39;20020;-71
2021/08/11 01:02:19;;;;;;;7.32;5.50;;;;;;;17.43;72.12;99136.34;3609923;39;20054;-71
2021/08/11 01:04:56;;;;;;;7.80;4.15;;;;;;;17.42;72.69;99140.03;3609834;39;20391;-71
2021/08/11 01:07:27;;;;;;;7.25;4.57;;;;;;;17.45;72.12;99141.44;3610130;39;20120;-72
2021/08/11 01:09:56;;;;;;;6.10;4.18;;;;;;;17.42;72.20;99139.22;3609842;39;20396;-71
2021/08/11 01:12:25;;;;;;;7.43;4.18;;;;;;;17.40;72.50;99146.66;3609909;39;20083;-71
2021/08/11 01:14:54;;;;;;;8.57;3.75;;;;;;;17.41;72.77;99143.75;3609887;39;20083;-71
2021/08/11 01:17:24;;;;;;;7.20;4.70;;;;;;;17.43;72.57;99146.19;3609570;39;20044;-72
2021/08/11 01:19:53;;;;;;;5.80;3.80;;;;;;;17.42;72.28;99145.38;3598830;40;20066;-71
2021/08/11 01:22:28;;;;;;;4.80;4.30;;;;;;;17.38;72.72;99140.72;3608277;39;20051;-72
2021/08/11 01:25:03;;;;;;;11.70;5.00;;;;;;;17.33;72.86;99150.22;3610568;39;20028;-71
2021/08/11 01:27:56;;;;;;;6.13;4.90;;;;;;;17.29;72.97;99149.06;3609928;39;20040;-71
2021/08/11 01:30:34;;;;;;;5.82;4.57;;;;;;;17.37;73.06;99141.78;3611883;39;20052;-71
2021/08/11 01:33:37;;;;;;;6.20;4.35;;;;;;;17.47;73.05;99140.19;3612404;39;20024;-71
2021/08/11 01:36:17;;;;;;;5.68;4.25;;;;;;;17.61;72.66;99138.09;3612195;39;20058;-70
2021/08/11 01:38:51;;;;;;;7.43;4.88;;;;;;;17.64;72.47;99136.84;3612788;39;20040;-71
2021/08/11 01:41:25;;;;;;;7.07;3.83;;;;;;;17.58;72.24;99130.53;3611860;39;20020;-71
2021/08/11 01:43:53;;;;;;;5.78;4.28;;;;;;;17.58;72.75;99142.03;3611620;39;20067;-72
2021/08/11 01:46:24;;;;;;;4.68;4.18;;;;;;;17.63;72.28;99135.19;3611065;39;20036;-71
2021/08/11 01:48:57;;;;;;;7.72;4.63;;;;;;;17.60;72.12;99136.47;3609736;39;20036;-71
2021/08/11 01:51:25;;;;;;;5.47;4.53;;;;;;;17.60;72.11;99136.47;3610131;39;20028;-71
2021/08/11 01:53:53;;;;;;;5.22;4.18;;;;;;;17.60;72.41;99135.69;3610349;39;20054;-70
2021/08/11 01:56:22;;;;;;;10.70;4.85;;;;;;;17.67;71.88;99137.16;3610224;39;20130;-72
2021/08/11 01:58:52;;;;;;;5.65;4.47;;;;;;;17.76;72.25;99129.69;3609856;39;20141;-70
2021/08/11 02:01:21;;;;;;;6.88;4.40;;;;;;;17.76;71.63;99129.69;3608736;39;20089;-71
2021/08/11 02:03:51;;;;;;;4.95;4.43;;;;;;;17.75;71.81;99130.69;3609966;39;20032;-71
2021/08/11 02:06:20;;;;;;;5.57;4.38;;;;;;;17.65;71.44;99133.94;3610663;39;20415;-71
2021/08/11 02:08:58;;;;;;;5.05;4.55;;;;;;;17.57;72.02;99129.72;3609859;39;20040;-71
2021/08/11 02:11:26;;;;;;;6.03;4.28;;;;;;;17.49;72.53;99130.06;3611432;39;20044;-71
2021/08/11 02:13:54;;;;;;;5.10;4.45;;;;;;;17.40;72.43;99131.44;3611289;39;20389;-72
2021/08/11 02:16:22;;;;;;;5.40;4.30;;;;;;;17.36;72.95;99130.28;3612951;39;20375;-71
2021/08/11 02:18:51;;;;;;;5.93;4.00;;;;;;;17.30;73.04;99133.84;3611927;39;20031;-71
2021/08/11 02:21:22;;;;;;;4.95;4.13;;;;;;;17.44;72.93;99140.63;3609657;39;20040;-71
2021/08/11 02:23:51;;;;;;;7.82;4.13;;;;;;;17.52;72.83;99136.81;3609491;39;20056;-71
2021/08/11 02:26:22;;;;;;;7.25;4.88;;;;;;;17.60;72.92;99139.16;3609609;39;20040;-70
2021/08/11 02:28:58;;;;;;;6.55;4.47;;;;;;;17.66;72.64;99143.56;3609700;39;20419;-71
2021/08/11 02:31:36;;;;;;;6.13;4.05;;;;;;;17.68;72.23;99141.50;3609843;39;20060;-70
2021/08/11 02:34:09;;;;;;;6.03;3.85;;;;;;;17.72;72.09;99136.50;3610832;39;20035;-71
2021/08/11 02:36:50;;;;;;;5.47;4.28;;;;;;;17.72;72.31;99137.31;3598680;40;20028;-71
2021/08/11 02:39:24;;;;;;;7.80;4.32;;;;;;;17.67;71.73;99136.34;3609546;39;20059;-71
2021/08/11 02:41:57;;;;;;;5.88;4.20;;;;;;;17.58;72.30;99138.56;3610361;39;20059;-72
2021/08/11 02:44:29;;;;;;;6.70;5.10;;;;;;;17.61;72.58;99137.28;3598779;40;20071;-72
2021/08/11 02:46:58;;;;;;;7.00;4.68;;;;;;;17.58;72.17;99139.38;3610091;39;20106;-73
2021/08/11 02:49:31;;;;;;;5.55;4.82;;;;;;;17.63;72.14;99135.19;3609291;39;20034;-72
2021/08/11 02:52:07;;;;;;;5.30;4.50;;;;;;;17.64;72.33;99143.00;3599315;40;20047;-72
2021/08/11 02:54:40;;;;;;;6.05;4.38;;;;;;;17.61;72.00;99139.97;3609205;39;20074;-73
2021/08/11 02:57:10;;;;;;;6.07;4.28;;;;;;;17.58;72.45;99141.22;3609504;39;20063;-72
2021/08/11 02:59:41;;;;;;;6.10;4.32;;;;;;;17.55;72.48;99142.53;3598059;40;20089;-72
2021/08/11 03:02:12;;;;;;;5.20;4.65;;;;;;;17.49;73.09;99140.75;3608625;39;20607;-72
2021/08/11 03:04:40;;;;;;;5.43;4.07;;;;;;;17.54;73.07;99148.09;3609710;39;20043;-72
2021/08/11 03:07:10;;;;;;;5.82;3.80;;;;;;;17.59;73.25;99142.84;3609830;39;20057;-72
2021/08/11 03:09:39;;;;;;;6.50;4.50;;;;;;;17.62;73.11;99144.25;3609385;39;20040;-72
2021/08/11 03:12:09;;;;;;;5.07;4.55;;;;;;;17.61;72.61;99142.63;3609488;39;20066;-72
2021/08/11 03:14:40;;;;;;;7.45;4.50;;;;;;;17.53;73.07;99149.94;3610225;39;20463;-71
2021/08/11 03:17:10;;;;;;;7.88;5.10;;;;;;;17.50;72.89;99147.72;3610559;39;20132;-72
2021/08/11 03:19:40;;;;;;;5.28;4.60;;;;;;;17.47;72.80;99150.03;3610432;39;20036;-71
2021/08/11 03:22:11;;;;;;;5.20;4.10;;;;;;;17.53;72.71;99149.13;3611047;39;20615;-71
2021/08/11 03:24:41;;;;;;;6.25;5.00;;;;;;;17.51;72.75;99146.69;3611908;39;20362;-71
2021/08/11 03:27:09;;;;;;;4.72;3.97;;;;;;;17.54;72.89;99150.75;3611476;39;20393;-72
2021/08/11 03:29:37;;;;;;;5.45;4.03;;;;;;;17.58;73.30;99154.59;3611042;39;20079;-71
2021/08/11 03:32:05;;;;;;;6.10;4.30;;;;;;;17.64;73.00;99144.88;3612794;39;20040;-71
2021/08/11 03:34:34;;;;;;;8.07;4.47;;;;;;;17.64;72.84;99153.69;3612214;39;20054;-73
2021/08/11 03:37:05;;;;;;;6.32;4.88;;;;;;;17.61;72.95;99138.09;3612594;39;20043;-72
2021/08/11 03:39:37;;;;;;;8.23;4.55;;;;;;;17.60;72.83;99139.16;3613425;39;20043;-72
2021/08/11 03:42:06;;;;;;;7.57;4.53;;;;;;;17.57;73.27;99143.09;3612208;39;20408;-75
2021/08/11 03:44:34;;;;;;;7.82;4.75;;;;;;;17.50;73.19;99133.53;3611359;39;20051;-72
2021/08/11 03:47:03;;;;;;;8.07;5.18;;;;;;;17.42;73.08;99137.34;3611193;39;20423;-73
2021/08/11 03:49:31;;;;;;;10.38;5.55;;;;;;;17.38;73.11;99130.84;3611061;39;20056;-73
2021/08/11 03:51:59;;;;;;;6.22;4.53;;;;;;;17.35;73.78;99142.00;3611341;39;20060;-72
2021/08/11 03:54:29;;;;;;;6.75;5.30;;;;;;;17.40;73.44;99146.66;3610836;39;20047;-73
2021/08/11 03:56:58;;;;;;;7.63;4.90;;;;;;;17.44;72.89;99142.50;3611748;39;20055;-72
2021/08/11 03:59:26;;;;;;;7.25;4.30;;;;;;;17.45;72.98;99144.13;3610533;39;20031;-72
2021/08/11 04:01:55;;;;;;;7.88;5.63;;;;;;;17.44;73.25;99150.50;3610262;39;20385;-71
2021/08/11 04:04:23;;;;;;;7.60;5.90;;;;;;;17.38;72.68;99144.19;3611463;39;20104;-70
2021/08/11 04:06:50;;;;;;;9.35;7.25;;;;;;;17.30;73.30;99142.66;3611735;39;20043;-70
2021/08/11 04:09:18;;;;;;;14.98;10.43;;;;;;;17.24;73.39;99146.25;3611760;39;20060;-71
2021/08/11 04:11:46;;;;;;;7.25;5.60;;;;;;;17.23;73.65;99152.66;3613160;39;20116;-71
2021/08/11 04:14:15;;;;;;;8.23;5.63;;;;;;;17.24;73.65;99151.59;3613433;39;20040;-71
2021/08/11 04:16:43;;;;;;;9.68;6.28;;;;;;;17.27;73.42;99150.34;3613234;39;20087;-71
2021/08/11 04:19:10;;;;;;;7.93;5.30;;;;;;;17.24;73.50;99148.94;3612764;39;20091;-72
2021/08/11 04:21:41;;;;;;;7.25;5.10;;;;;;;17.16;73.92;99145.78;3612596;39;20127;-72
2021/08/11 04:24:09;;;;;;;9.75;5.38;;;;;;;17.12;73.98;99152.59;3611718;39;20105;-72
2021/08/11 04:26:38;;;;;;;9.30;4.75;;;;;;;17.14;74.29;99163.88;3612034;39;20132;-73
2021/08/11 04:29:06;;;;;;;6.93;4.47;;;;;;;17.16;73.80;99156.47;3612213;39;20381;-72
2021/08/11 04:31:35;;;;;;;7.15;5.47;;;;;;;17.14;73.96;99158.53;3615990;39;20398;-72
2021/08/11 04:34:02;;;;;;;6.20;5.07;;;;;;;17.12;74.29;99163.28;3616445;39;20409;-73
2021/08/11 04:36:34;;;;;;;10.65;5.90;;;;;;;17.12;74.47;99164.09;3617119;39;20055;-72
2021/08/11 04:39:02;;;;;;;6.80;5.00;;;;;;;17.17;74.28;99161.56;3615735;39;20101;-72
2021/08/11 04:41:29;;;;;;;13.48;8.77;;;;;;;17.22;74.47;99166.22;3612047;39;20430;-71
2021/08/11 04:43:57;;;;;;;6.35;5.75;;;;;;;17.28;74.03;99165.34;3611900;39;20052;-72
2021/08/11 04:46:25;;;;;;;7.65;5.63;;;;;;;17.35;74.09;99160.72;3612291;39;20413;-72
2021/08/11 04:48:54;;;;;;;6.47;4.35;;;;;;;17.43;73.87;99160.38;3611724;39;20047;-71
2021/08/11 04:51:21;;;;;;;7.05;5.43;;;;;;;17.52;73.50;99167.03;3612452;39;20059;-72
2021/08/11 04:53:49;;;;;;;5.82;5.18;;;;;;;17.58;73.20;99160.75;3612716;39;20056;-71
2021/08/11 04:56:18;;;;;;;16.30;7.93;;;;;;;17.54;73.18;99170.28;3612785;39;20666;-72
2021/08/11 04:58:46;;;;;;;13.75;8.00;;;;;;;17.55;72.94;99166.59;3612362;39;20044;-71
2021/08/11 05:01:13;;;;;;;13.57;7.05;;;;;;;17.60;73.01;99168.56;3612588;39;20148;-72
2021/08/11 05:03:41;;;;;;;13.00;6.00;;;;;;;17.67;72.87;99169.25;3612383;39;20064;-72
2021/08/11 05:06:11;;;;;;;9.80;5.70;;;;;;;17.69;72.42;99179.75;3614367;39;20097;-72
2021/08/11 05:08:39;;;;;;;10.25;5.53;;;;;;;17.74;72.74;99177.19;3618239;39;20051;-72
2021/08/11 05:11:07;;;;;;;6.10;5.20;;;;;;;17.75;72.65;99173.50;3618462;39;20386;-72
2021/08/11 05:13:35;;;;;;;12.70;8.20;;;;;;;17.75;72.45;99173.50;3649144;22;20121;-66
2021/08/11 05:16:03;;;;;;;7.57;4.70;;;;;;;17.75;72.45;99178.84;3611181;39;20060;-68
2021/08/11 05:18:31;;;;;;;8.32;6.93;;;;;;;17.71;71.97;99178.44;3611751;39;20047;-66
2021/08/11 05:20:59;;;;;;;6.95;4.90;;;;;;;17.66;72.40;99185.53;3611467;39;20386;-66
2021/08/11 05:23:28;;;;;;;6.53;5.03;;;;;;;17.63;72.85;99177.97;3611368;39;20048;-68
2021/08/11 05:25:56;;;;;;;10.07;6.15;;;;;;;17.58;72.97;99181.31;3611593;39;20051;-66
2021/08/11 05:28:23;;;;;;;7.85;6.10;;;;;;;17.60;72.98;99176.59;3611402;39;20060;-67
2021/08/11 05:30:51;;;;;;;7.45;5.53;;;;;;;17.66;73.14;99177.50;3611975;39;20063;-67
2021/08/11 05:33:19;;;;;;;7.88;5.47;;;;;;;17.72;73.21;99177.41;3612095;39;20128;-67
2021/08/11 05:35:46;;;;;;;5.90;4.95;;;;;;;17.76;72.87;99177.81;3611934;39;20132;-67
2021/08/11 05:38:14;;;;;;;11.05;6.22;;;;;;;17.74;72.21;99183.38;3611419;39;20051;-67
2021/08/11 05:40:43;;;;;;;8.43;6.07;;;;;;;17.66;72.52;99196.22;3611621;39;20132;-66
2021/08/11 05:43:11;;;;;;;8.73;6.38;;;;;;;17.68;72.62;99199.50;3611562;39;20047;-67
2021/08/11 05:45:38;;;;;;;11.70;7.90;;;;;;;17.69;73.11;99203.78;3612201;39;20047;-66
2021/08/11 05:48:06;;;;;;;13.18;10.57;;;;;;;17.77;72.68;99203.50;3611540;39;20054;-66
2021/08/11 05:50:34;;;;;;;10.85;6.25;;;;;;;17.84;72.72;99201.53;3611667;39;20048;-66
2021/08/11 05:53:02;;;;;;;6.65;4.75;;;;;;;17.95;72.88;99202.59;3612023;39;20124;-66
2021/08/11 05:55:30;;;;;;;6.68;5.38;;;;;;;18.03;72.17;99207.59;3611749;39;20389;-66
2021/08/11 05:57:59;;;;;;;7.05;5.10;;;;;;;18.06;72.23;99197.25;3612555;39;20388;-66
2021/08/11 06:00:27;;;;;;;6.18;5.57;;;;;;;18.12;71.90;99192.81;3613330;39;20076;-66
2021/08/11 06:02:56;;;;;;;6.13;4.10;;;;;;;18.17;71.73;99197.50;3612610;39;20060;-67
2021/08/11 06:05:34;;;;;;;11.45;5.45;;;;;;;18.24;71.49;99203.53;3612950;39;20044;-67
2021/08/11 06:08:02;;;;;;;4.80;4.25;;;;;;;18.34;71.29;99205.66;3611874;39;20083;-67
2021/08/11 06:10:30;;;;;;;6.88;4.85;;;;;;;18.50;70.89;99200.41;3613986;39;20047;-67
2021/08/11 06:12:59;;;;;;;5.63;4.35;;;;;;;18.62;70.63;99210.28;3617548;39;20038;-67
2021/08/11 06:15:27;;;;;;;13.70;4.70;;;;;;;18.66;70.00;99206.09;3617567;39;20060;-67
2021/08/11 06:17:55;;;;;;;7.72;4.70;;;;;;;18.66;70.13;99209.59;3611763;39;20043;-67
2021/08/11 06:20:24;;;;;;;7.45;5.30;;;;;;;18.77;70.24;99210.63;3610075;39;20066;-67
2021/08/11 06:22:52;;;;;;;9.65;6.18;;;;;;;18.87;69.64;99202.00;3612532;39;20036;-68
2021/08/11 06:25:20;;;;;;;6.10;4.68;;;;;;;18.87;69.04;99207.38;3619881;39;20299;-68
2021/08/11 06:27:49;;;;;;;8.50;5.13;;;;;;;18.80;69.00;99197.59;3612673;39;20040;-70
2021/08/11 06:30:18;;;;;;;6.63;4.65;;;;;;;18.70;69.24;99204.59;3613094;39;20052;-68
2021/08/11 06:32:45;;;;;;;5.57;4.32;;;;;;;18.68;69.31;99206.66;3615017;39;20122;-68
2021/08/11 06:35:14;;;;;;;9.57;7.18;;;;;;;18.65;69.57;99202.56;3611251;39;20392;-68
2021/08/11 06:37:46;;;;;;;9.13;4.70;;;;;;;18.70;69.94;99208.09;3614473;39;20047;-67
2021/08/11 06:40:15;;;;;;;14.32;12.20;;;;;;;18.80;69.30;99207.47;3613973;39;20088;-68
2021/08/11 06:42:44;;;;;;;6.28;4.60;;;;;;;18.75;69.25;99208.19;3610168;39;20051;-68
2021/08/11 06:45:14;;;;;;;9.07;6.75;;;;;;;18.79;69.36;99211.22;3609146;39;20054;-68
2021/08/11 06:47:43;;;;;;;8.30;6.85;;;;;;;18.87;69.19;99212.72;3609634;39;20044;-68
2021/08/11 06:50:14;;;;;;;7.32;5.05;;;;;;;18.93;68.99;99204.53;3609354;39;20047;-68
2021/08/11 06:52:42;;;;;;;7.90;5.43;;;;;;;18.91;68.85;99203.97;3613473;39;20059;-68
2021/08/11 06:55:12;;;;;;;6.55;4.78;;;;;;;18.90;69.34;99207.72;3612736;39;20051;-68
2021/08/11 06:57:40;;;;;;;7.97;4.97;;;;;;;19.00;69.14;99209.78;3614262;39;20080;-66
2021/08/11 07:00:10;;;;;;;6.47;5.40;;;;;;;19.08;69.03;99204.03;3613354;39;20404;-66
2021/08/11 07:02:39;;;;;;;7.93;4.85;;;;;;;19.23;68.19;99206.22;3614410;39;20030;-66
2021/08/11 07:05:10;;;;;;;6.80;4.10;;;;;;;19.25;68.27;99204.09;3614493;39;20072;-66
2021/08/11 07:07:37;;;;;;;10.10;4.93;;;;;;;19.20;68.15;99204.81;3613862;39;20055;-67
2021/08/11 07:10:06;;;;;;;8.88;4.53;;;;;;;19.18;67.84;99206.91;3614222;39;20249;-66
2021/08/11 07:12:34;;;;;;;6.07;3.90;;;;;;;19.34;68.09;99207.19;3613861;39;20086;-66
2021/08/11 07:15:02;;;;;;;10.30;5.40;;;;;;;19.60;67.02;99209.31;3617387;39;20083;-67
2021/08/11 07:17:30;;;;;;;5.97;4.95;;;;;;;19.66;66.63;99208.34;3616219;39;20043;-68
2021/08/11 07:19:58;;;;;;;7.80;5.18;;;;;;;19.82;66.47;99211.31;3614925;39;20084;-67
2021/08/11 07:22:27;;;;;;;11.10;4.85;;;;;;;19.91;66.25;99199.09;3615229;39;20115;-68
2021/08/11 07:24:55;;;;;;;9.77;6.63;;;;;;;19.99;65.86;99202.19;3615482;39;20044;-67
2021/08/11 07:27:23;;;;;;;7.78;4.80;;;;;;;20.03;64.95;99205.19;3610006;39;20043;-67
2021/08/11 07:29:51;;;;;;;9.10;5.60;;;;;;;20.07;65.29;99200.16;3609330;39;20071;-67
2021/08/11 07:32:18;;;;;;;4.95;4.18;;;;;;;20.20;65.11;99192.56;3608340;39;20124;-67
2021/08/11 07:34:46;;;;;;;8.95;5.35;;;;;;;20.31;64.18;99196.25;3609297;39;20058;-68
2021/08/11 07:37:14;;;;;;;7.68;5.30;;;;;;;20.35;64.24;99194.69;3608326;39;20051;-67
2021/08/11 07:39:43;;;;;;;5.35;4.30;;;;;;;20.43;64.36;99194.25;3609020;39;20355;-67
2021/08/11 07:42:11;;;;;;;6.03;4.25;;;;;;;20.51;63.79;99195.75;3606155;39;20055;-67
2021/08/11 07:44:39;;;;;;;6.22;4.95;;;;;;;20.61;63.80;99193.19;3598221;40;20085;-68
2021/08/11 07:47:07;;;;;;;9.30;4.88;;;;;;;20.78;63.05;99195.84;3599329;40;20043;-68
2021/08/11 07:49:35;;;;;;;7.30;4.40;;;;;;;20.82;63.15;99199.66;3598725;40;20270;-69
2021/08/11 07:52:03;;;;;;;4.65;3.90;;;;;;;20.88;63.31;99201.34;3599000;40;20044;-68
2021/08/11 07:54:31;;;;;;;7.22;4.80;;;;;;;21.05;62.73;99195.88;3600424;39;20368;-68
2021/08/11 07:57:00;;;;;;;6.80;4.22;;;;;;;21.13;61.81;99200.81;3602235;39;20080;-67
2021/08/11 07:59:28;;;;;;;8.93;6.18;;;;;;;21.18;61.86;99206.25;3600703;40;20043;-68
2021/08/11 08:01:55;;;;;;;7.35;4.50;;;;;;;21.19;62.00;99207.06;3603333;39;20084;-67
2021/08/11 08:04:23;;;;;;;6.40;4.68;;;;;;;21.35;61.88;99203.53;3602579;40;20393;-67
2021/08/11 08:06:51;;;;;;;8.55;5.63;;;;;;;21.57;61.01;99205.34;3608127;39;20043;-68
2021/08/11 08:09:20;;;;;;;11.35;4.65;;;;;;;21.69;61.12;99203.31;3614005;39;20105;-68
2021/08/11 08:11:48;;;;;;;6.65;5.43;;;;;;;21.92;60.25;99202.13;3615452;39;20043;-70
2021/08/11 08:14:17;;;;;;;9.52;6.53;;;;;;;22.18;58.91;99206.69;3615947;39;20069;-67
2021/08/11 08:16:45;;;;;;;5.40;3.97;;;;;;;22.34;58.27;99201.41;3615434;39;20333;-67
2021/08/11 08:19:17;;;;;;;8.20;5.43;;;;;;;22.55;58.31;99191.56;3615573;39;20044;-68
2021/08/11 08:21:45;;;;;;;7.30;5.65;;;;;;;22.87;56.30;99196.84;3616205;39;20058;-68
2021/08/11 08:24:13;;;;;;;7.95;4.78;;;;;;;23.06;55.77;99199.88;3617094;39;20038;-67
2021/08/11 08:26:42;;;;;;;7.85;4.45;;;;;;;23.26;54.39;99194.56;3618438;39;20070;-67
2021/08/11 08:29:10;;;;;;;7.32;4.15;;;;;;;23.25;54.47;99201.03;3615857;39;20059;-67
2021/08/11 08:31:40;;;;;;;4.72;3.40;;;;;;;23.26;54.09;99201.84;3616272;39;20039;-66
2021/08/11 08:34:08;;;;;;;5.28;3.72;;;;;;;23.36;53.94;99199.19;3615657;39;20051;-67
2021/08/11 08:36:35;;;;;;;5.78;4.30;;;;;;;23.39;52.60;99199.47;3616489;39;20039;-66
2021/08/11 08:39:03;;;;;;;4.25;3.22;;;;;;;23.38;52.64;99197.81;3615158;39;20062;-66
2021/08/11 08:41:31;;;;;;;5.82;3.03;;;;;;;23.30;53.01;99200.25;3615990;39;20059;-66
2021/08/11 08:43:59;;;;;;;7.28;4.15;;;;;;;23.29;53.14;99202.13;3614026;39;20047;-66
2021/08/11 08:46:28;;;;;;;6.47;4.10;;;;;;;23.32;53.23;99201.59;3615893;39;20024;-67
2021/08/11 08:48:59;;;;;;;5.07;3.97;;;;;;;23.42;53.27;99215.09;3615272;39;20036;-67
2021/08/11 08:51:29;;;;;;;5.38;4.40;;;;;;;23.36;52.58;99205.38;3616065;39;20466;-67
2021/08/11 08:53:57;;;;;;;6.22;4.60;;;;;;;23.22;53.00;99205.06;3616900;39;20043;-66
2021/08/11 08:56:25;;;;;;;5.43;3.72;;;;;;;23.18;53.46;99203.16;3616617;39;20047;-66
2021/08/11 08:59:19;;;;;;;6.10;5.05;;;;;;;23.19;53.59;99197.53;3616885;39;20050;-68
2021/08/11 09:01:47;;;;;;;5.13;3.53;;;;;;;23.23;53.49;99201.31;3612961;39;20044;-67
2021/08/11 09:04:17;;;;;;;4.82;3.65;;;;;;;23.34;53.41;99201.31;3613020;39;20055;-66
2021/08/11 09:06:45;;;;;;;6.95;3.72;;;;;;;23.42;53.09;99207.00;3611273;39;20051;-67
2021/08/11 09:09:13;;;;;;;6.85;4.68;;;;;;;23.51;52.79;99207.28;3611226;39;20047;-67
2021/08/11 09:11:43;;;;;;;5.00;3.60;;;;;;;23.58;52.38;99210.53;3613016;39;20047;-68
2021/08/11 09:14:22;;;;;;;5.68;3.58;;;;;;;23.63;52.30;99204.34;3613450;39;20040;-67
2021/08/11 09:16:52;;;;;;;4.93;3.25;;;;;;;23.65;52.19;99208.44;3613096;39;20047;-68
2021/08/11 09:19:22;;;;;;;5.18;3.35;;;;;;;23.80;52.12;99214.91;3613805;39;20058;-67
2021/08/11 09:21:58;;;;;;;5.13;3.78;;;;;;;23.98;51.62;99211.69;3613452;39;20048;-67
2021/08/11 09:24:27;;;;;;;5.50;3.35;;;;;;;24.03;51.49;99211.69;3612768;39;20059;-67
2021/08/11 09:26:55;;;;;;;8.85;5.82;;;;;;;24.14;51.08;99213.28;3611971;39;20043;-67
2021/08/11 09:29:23;;;;;;;6.47;4.18;;;;;;;24.17;50.89;99215.47;3612788;39;20055;-67
2021/08/11 09:32:07;;;;;;;5.75;4.53;;;;;;;24.27;51.35;99214.63;3612474;39;20040;-67
2021/08/11 09:34:44;;;;;;;5.60;3.80;;;;;;;24.29;50.17;99212.47;3611825;39;20047;-67
2021/08/11 09:37:12;;;;;;;4.70;4.10;;;;;;;24.37;50.62;99206.53;3610563;39;20387;-67
2021/08/11 09:39:41;;;;;;;6.38;3.92;;;;;;;24.49;49.66;99198.13;3610147;39;20135;-67
2021/08/11 09:42:09;;;;;;;5.13;4.22;;;;;;;24.59;49.65;99206.22;3610958;39;20047;-67
2021/08/11 09:44:39;;;;;;;5.20;3.88;;;;;;;24.75;49.11;99206.19;3609976;39;20051;-67
2021/08/11 09:47:12;;;;;;;4.57;2.70;;;;;;;24.74;49.11;99201.84;3611008;39;20039;-67
2021/08/11 09:49:40;;;;;;;4.47;4.05;;;;;;;24.79;48.95;99199.94;3609538;39;20048;-67
2021/08/11 09:52:09;;;;;;;5.00;3.47;;;;;;;24.86;48.39;99200.47;3610718;39;20035;-67
2021/08/11 09:54:37;;;;;;;5.20;2.90;;;;;;;24.97;48.24;99201.22;3610058;39;20092;-67
2021/08/11 09:57:05;;;;;;;5.22;2.95;;;;;;;25.13;47.73;99204.69;3612205;39;20050;-67
2021/08/11 09:59:56;;;;;;;6.93;3.10;;;;;;;25.43;47.76;99198.28;3613256;39;20055;-67
2021/08/11 10:02:25;;;;;;;3.97;2.92;;;;;;;25.58;47.39;99205.50;3609967;39;20050;-67
2021/08/11 10:04:53;;;;;;;6.72;5.28;;;;;;;25.75;46.89;99197.78;3609738;39;20413;-69
2021/08/11 10:07:23;;;;;;;5.78;3.13;;;;;;;26.01;46.18;99198.44;3610579;39;20063;-68
2021/08/11 10:10:01;;;;;;;5.43;2.90;;;;;;;26.05;46.27;99199.50;3609851;39;20071;-66
2021/08/11 10:12:32;;;;;;;7.13;3.35;;;;;;;25.93;46.26;99207.97;3610856;39;20382;-66
2021/08/11 10:15:04;;;;;;;4.03;2.78;;;;;;;25.82;46.36;99211.84;3611344;39;20036;-66
2021/08/11 10:17:34;;;;;;;5.93;2.70;;;;;;;25.91;46.14;99206.63;3610016;39;20055;-66
2021/08/11 10:20:05;;;;;;;4.25;3.03;;;;;;;26.09;45.90;99210.56;3609492;39;20066;-66
2021/08/11 10:22:34;;;;;;;4.93;2.85;;;;;;;26.05;44.81;99204.09;3609777;39;20055;-66
2021/08/11 10:25:03;;;;;;;4.15;2.47;;;;;;;25.92;45.02;99217.22;3609714;39;20043;-68
2021/08/11 10:27:32;;;;;;;4.75;3.92;;;;;;;26.02;44.99;99202.75;3609661;39;20039;-66
2021/08/11 10:30:00;;;;;;;7.32;2.50;;;;;;;25.94;44.86;99203.38;3609303;39;20068;-66
2021/08/11 10:32:28;;;;;;;2.80;2.50;;;;;;;25.86;44.97;99199.38;3610570;39;20054;-66
2021/08/11 10:34:58;;;;;;;7.22;2.42;;;;;;;25.80;44.94;99205.09;3609304;39;20052;-66
2021/08/11 10:37:26;;;;;;;3.17;2.38;;;;;;;25.71;44.94;99202.16;3610452;39;20301;-68
2021/08/11 10:39:55;;;;;;;2.85;2.33;;;;;;;25.66;44.58;99205.72;3609553;39;20310;-67
2021/08/11 10:42:23;;;;;;;3.65;2.30;;;;;;;25.79;44.43;99204.28;3609472;39;20329;-67
2021/08/11 10:44:59;;;;;;;2.60;2.40;;;;;;;25.75;44.36;99199.69;3608217;39;20052;-68
2021/08/11 10:47:32;;;;;;;3.33;2.53;;;;;;;25.68;44.39;99203.53;3608673;39;20093;-69
2021/08/11 10:50:01;;;;;;;2.78;1.95;;;;;;;25.76;44.38;99198.59;3608243;39;20083;-67
2021/08/11 10:52:31;;;;;;;4.43;2.20;;;;;;;25.88;44.48;99197.19;3609260;39;20044;-68
2021/08/11 10:55:02;;;;;;;4.70;3.53;;;;;;;26.02;44.57;99194.63;3610763;39;20051;-67
2021/08/11 10:57:46;;;;;;;3.47;2.58;;;;;;;26.06;44.26;99190.25;3610666;39;20043;-68
2021/08/11 11:00:42;;;;;;;3.78;2.53;;;;;;;26.12;44.56;99185.59;3609775;39;20075;-67
2021/08/11 11:06:53;;;;;;;4.05;2.80;;;;;;;26.29;43.52;99187.84;2622878;54;20404;-69
2021/08/11 11:09:25;;;;;;;3.33;2.10;;;;;;;26.19;42.97;99181.47;2623339;54;20038;-66
2021/08/11 11:11:54;;;;;;;5.05;2.55;;;;;;;26.16;42.93;99176.59;2623581;54;20569;-66
2021/08/11 11:14:53;;;;;;;3.08;2.47;;;;;;;26.21;43.31;99175.78;2624773;54;20026;-66
2021/08/11 11:17:25;;;;;;;4.97;2.95;;;;;;;26.32;42.83;99181.88;2624422;54;20034;-66
2021/08/11 11:20:31;;;;;;;5.50;2.40;;;;;;;26.38;42.14;99169.91;2622484;46;20038;-73
2021/08/11 11:23:07;;;;;;;4.00;2.83;;;;;;;26.51;41.62;99176.56;2623615;54;20026;-72
2021/08/11 11:26:05;;;;;;;3.05;2.40;;;;;;;26.54;41.07;99173.28;2624386;54;20041;-72
2021/08/11 11:29:00;;;;;;;4.35;2.20;;;;;;;26.67;40.56;99178.81;2623684;54;20022;-72
2021/08/11 11:31:48;;;;;;;3.00;2.60;;;;;;;26.91;40.93;99165.22;2622569;54;20045;-72
2021/08/11 11:34:28;;;;;;;2.53;2.20;;;;;;;27.13;40.17;99175.53;2622947;54;20046;-71
2021/08/11 11:37:37;;;;;;;2.60;2.33;;;;;;;27.11;38.89;99169.59;2622900;54;20030;-72
2021/08/11 11:40:19;;;;;;;3.83;2.30;;;;;;;26.95;39.62;99160.03;2622340;54;20061;-72
2021/08/11 11:42:49;;;;;;;5.68;2.40;;;;;;;26.96;40.18;99156.22;2623030;54;20038;-72
2021/08/11 11:45:47;;;;;;;3.17;2.63;;;;;;;27.11;40.13;99157.94;2622724;54;20034;-71
2021/08/11 11:48:17;;;;;;;4.78;2.53;;;;;;;27.21;39.78;99148.84;2622151;54;20069;-70
2021/08/11 11:50:49;;;;;;;2.58;2.08;;;;;;;27.32;39.10;99163.88;2622660;54;20030;-71